sensor_id;sensor_type;location;lat;lon;timestamp;temperature;humidity
14761;DHT22;7472;45.396;5.272;2024-03-08T03:21:15;4.80;99.90
14761;DHT22;7472;45.396;5.272;2024-03-08T04:50:28;4.20;99.90
14761;DHT22;7472;45.396;5.272;2024-03-08T04:52:56;4.20;99.90
14761;DHT22;7472;45.396;5.272;2024-03-08T04:55:23;4.10;99.90
14761;DHT22;7472;45.396;5.272;2024-03-08T04:57:52;4.00;99.90
14761;DHT22;7472;45.396;5.272;2024-03-08T05:00:19;3.00;99.90
14761;DHT22;7472;45.396;5.272;2024-03-08T05:02:46;3.70;99.90
14761;DHT22;7472;45.396;5.272;2024-03-08T05:05:13;3.70;99.90
14761;DHT22;7472;45.396;5.272;2024-03-08T05:07:41;3.30;99.90
14761;DHT22;7472;45.396;5.272;2024-03-08T05:10:09;3.60;99.90
14761;DHT22;7472;45.396;5.272;2024-03-08T05:15:06;3.30;99.90
14761;DHT22;7472;45.396;5.272;2024-03-08T05:17:34;3.20;99.90
14761;DHT22;7472;45.396;5.272;2024-03-08T05:20:01;3.30;99.90
14761;DHT22;7472;45.396;5.272;2024-03-08T05:22:28;3.40;99.90
14761;DHT22;7472;45.396;5.272;2024-03-08T05:24:55;3.50;99.90
14761;DHT22;7472;45.396;5.272;2024-03-08T05:27:22;3.50;99.90
14761;DHT22;7472;45.396;5.272;2024-03-08T05:29:49;3.40;99.90
14761;DHT22;7472;45.396;5.272;2024-03-08T05:32:18;3.40;99.90
14761;DHT22;7472;45.396;5.272;2024-03-08T05:34:45;3.50;99.90
14761;DHT22;7472;45.396;5.272;2024-03-08T05:37:12;3.60;99.90
14761;DHT22;7472;45.396;5.272;2024-03-08T05:39:40;3.70;99.90
14761;DHT22;7472;45.396;5.272;2024-03-08T05:42:07;3.80;99.90
14761;DHT22;7472;45.396;5.272;2024-03-08T05:44:35;3.80;99.90
14761;DHT22;7472;45.396;5.272;2024-03-08T05:47:02;3.80;99.90
14761;DHT22;7472;45.396;5.272;2024-03-08T05:49:30;3.70;99.90
14761;DHT22;7472;45.396;5.272;2024-03-08T05:51:57;3.60;99.90
14761;DHT22;7472;45.396;5.272;2024-03-08T05:54:25;3.60;99.90
14761;DHT22;7472;45.396;5.272;2024-03-08T05:56:52;3.70;99.90
14761;DHT22;7472;45.396;5.272;2024-03-08T05:59:20;3.60;99.90
14761;DHT22;7472;45.396;5.272;2024-03-08T06:01:49;3.70;99.90
14761;DHT22;7472;45.396;5.272;2024-03-08T06:04:16;3.70;99.90
14761;DHT22;7472;45.396;5.272;2024-03-08T06:09:12;3.60;99.90
14761;DHT22;7472;45.396;5.272;2024-03-08T06:11:43;3.60;99.90
14761;DHT22;7472;45.396;5.272;2024-03-08T06:14:10;3.60;99.90
14761;DHT22;7472;45.396;5.272;2024-03-08T06:16:37;3.60;99.90
14761;DHT22;7472;45.396;5.272;2024-03-08T06:19:05;3.60;99.90
14761;DHT22;7472;45.396;5.272;2024-03-08T06:21:32;3.50;99.90
14761;DHT22;7472;45.396;5.272;2024-03-08T06:24:00;3.60;99.90
14761;DHT22;7472;45.396;5.272;2024-03-08T06:26:27;4.20;99.90
14761;DHT22;7472;45.396;5.272;2024-03-08T06:28:55;4.80;99.90
14761;DHT22;7472;45.396;5.272;2024-03-08T06:31:22;5.10;99.90
14761;DHT22;7472;45.396;5.272;2024-03-08T06:33:49;4.80;99.90
14761;DHT22;7472;45.396;5.272;2024-03-08T06:36:16;4.40;99.90
14761;DHT22;7472;45.396;5.272;2024-03-08T06:38:45;4.20;99.90
14761;DHT22;7472;45.396;5.272;2024-03-08T06:41:13;4.10;99.90
14761;DHT22;7472;45.396;5.272;2024-03-08T06:43:41;4.10;99.90
14761;DHT22;7472;45.396;5.272;2024-03-08T06:46:09;4.10;99.90
14761;DHT22;7472;45.396;5.272;2024-03-08T06:48:38;4.20;99.90
14761;DHT22;7472;45.396;5.272;2024-03-08T06:53:32;4.40;99.90
14761;DHT22;7472;45.396;5.272;2024-03-08T06:56:00;4.50;99.90
14761;DHT22;7472;45.396;5.272;2024-03-08T07:00:58;5.30;99.90
14761;DHT22;7472;45.396;5.272;2024-03-08T07:03:26;5.60;99.90
14761;DHT22;7472;45.396;5.272;2024-03-08T07:05:55;5.80;99.90
14761;DHT22;7472;45.396;5.272;2024-03-08T07:08:22;6.10;99.90
14761;DHT22;7472;45.396;5.272;2024-03-08T07:10:49;6.30;99.90
14761;DHT22;7472;45.396;5.272;2024-03-08T07:13:16;6.40;99.90
14761;DHT22;7472;45.396;5.272;2024-03-08T07:15:45;6.40;99.90
14761;DHT22;7472;45.396;5.272;2024-03-08T07:18:12;6.80;99.90
14761;DHT22;7472;45.396;5.272;2024-03-08T07:20:41;7.10;99.90
